createdAt,value
2022-12-19T00:01:35.351Z,101954.88
2022-12-19T00:04:08.072Z,101949.59
2022-12-19T00:06:36.637Z,101947.81
2022-12-19T00:09:04.050Z,101938.19
2022-12-19T00:11:30.867Z,101930.44
2022-12-19T00:13:58.217Z,101933.00
2022-12-19T00:16:27.899Z,101912.72
2022-12-19T00:18:58.351Z,101909.41
2022-12-19T00:21:28.118Z,101897.72
2022-12-19T00:23:55.299Z,101903.00
2022-12-19T00:26:23.739Z,101898.56
2022-12-19T00:28:53.190Z,101897.72
2022-12-19T00:31:21.734Z,101910.06
2022-12-19T00:33:49.354Z,101910.06
2022-12-19T00:36:22.797Z,101881.03
2022-12-19T00:38:51.548Z,101882.81
2022-12-19T00:41:24.351Z,101885.38
2022-12-19T00:43:58.572Z,101869.72
2022-12-19T00:46:26.287Z,101873.38
2022-12-19T00:48:52.855Z,101876.69
2022-12-19T00:51:22.253Z,101863.50
2022-12-19T00:53:50.732Z,101861.69
2022-12-19T00:56:21.309Z,101840.56
2022-12-19T00:58:48.938Z,101835.47
2022-12-19T01:01:25.338Z,101831.81
2022-12-19T01:04:26.685Z,101825.75
2022-12-19T01:06:39.469Z,101835.38
2022-12-19T01:09:08.973Z,101814.44
2022-12-19T01:11:54.227Z,101825.75
2022-12-19T01:14:23.062Z,101831.91
2022-12-19T01:16:50.711Z,101834.63
2022-12-19T01:19:17.366Z,101827.56
2022-12-19T01:21:43.946Z,101826.06
2022-12-19T01:24:11.430Z,101839.81
2022-12-19T01:26:37.950Z,101817.84
2022-12-19T01:29:05.299Z,101809.91
2022-12-19T01:31:33.314Z,101816.91
2022-12-19T01:34:01.511Z,101808.34
2022-12-19T01:36:28.387Z,101815.19
2022-12-19T01:38:58.381Z,101813.63
2022-12-19T01:41:24.989Z,101812.03
2022-12-19T01:43:57.494Z,101821.44
2022-12-19T01:46:39.967Z,101803.88
2022-12-19T01:49:15.159Z,101791.84
2022-12-19T01:51:46.442Z,101794.38
2022-12-19T01:54:25.806Z,101781.94
2022-12-19T01:56:55.796Z,101775.16
2022-12-19T01:59:32.161Z,101775.06
2022-12-19T02:02:11.468Z,101779.50
2022-12-19T02:04:39.624Z,101767.31
2022-12-19T02:07:15.246Z,101760.16
2022-12-19T02:09:56.561Z,101772.50
2022-12-19T02:12:25.651Z,101765.53
2022-12-19T02:14:54.345Z,101769.97
2022-12-19T02:17:56.047Z,101753.28
2022-12-19T02:21:03.966Z,101771.75
2022-12-19T02:23:47.449Z,101758.66
2022-12-19T02:26:29.239Z,101757.81
2022-12-19T02:29:17.049Z,101760.44
2022-12-19T02:31:57.301Z,101744.69
2022-12-19T02:34:30.089Z,101732.34
2022-12-19T02:37:05.509Z,101720.94
2022-12-19T02:39:43.316Z,101724.53
2022-12-19T02:42:15.127Z,101720.94
2022-12-19T02:44:49.472Z,101709.53
2022-12-19T02:47:17.400Z,101702.47
2022-12-19T02:49:44.050Z,101702.47
2022-12-19T02:52:33.512Z,101709.53
2022-12-19T02:55:10.403Z,101700.75
2022-12-19T02:57:46.033Z,101708.69
2022-12-19T03:00:16.329Z,101701.63
2022-12-19T03:03:22.482Z,101701.72
2022-12-19T03:06:01.547Z,101685.78
2022-12-19T03:08:31.932Z,101693.78
2022-12-19T03:11:04.736Z,101684.06
2022-12-19T03:13:36.360Z,101671.81
2022-12-19T03:16:04.958Z,101684.06
2022-12-19T03:18:33.239Z,101690.19
2022-12-19T03:21:21.265Z,101676.16
2022-12-19T03:23:50.820Z,101679.88
2022-12-19T03:26:22.037Z,101671.81
2022-12-19T03:28:57.686Z,101668.22
2022-12-19T03:31:28.558Z,101670.97
2022-12-19T03:33:59.389Z,101673.50
2022-12-19T03:36:31.759Z,101671.81
2022-12-19T03:39:02.456Z,101658.63
2022-12-19T03:41:49.416Z,101650.84
2022-12-19T03:44:17.205Z,101653.25
2022-12-19T03:46:51.136Z,101648.91
2022-12-19T03:49:18.220Z,101645.31
2022-12-19T03:51:57.786Z,101645.41
2022-12-19T03:54:31.124Z,101652.50
2022-12-19T03:57:14.679Z,101644.47
2022-12-19T04:00:02.753Z,101641.13
2022-12-19T04:02:30.421Z,101641.94
2022-12-19T04:05:04.195Z,101640.03
2022-12-19T04:07:32.765Z,101639.19
2022-12-19T04:10:02.145Z,101629.59
2022-12-19T04:12:34.492Z,101640.16
2022-12-19T04:15:01.591Z,101639.28
2022-12-19T04:17:39.432Z,101629.59
2022-12-19T04:20:11.209Z,101609.53
2022-12-19T04:22:40.698Z,101615.44
2022-12-19T04:25:16.099Z,101619.88
2022-12-19T04:27:48.162Z,101613.88
2022-12-19T04:30:20.151Z,101611.94
2022-12-19T04:32:48.119Z,101615.53
2022-12-19T04:35:14.729Z,101603.19
2022-12-19T04:37:41.751Z,101601.41
2022-12-19T04:40:10.124Z,101606.66
2022-12-19T04:42:37.602Z,101598.88
2022-12-19T04:45:05.816Z,101595.41
2022-12-19T04:47:33.262Z,101602.25
2022-12-19T04:49:59.829Z,101590.00
2022-12-19T04:52:26.945Z,101598.75
2022-12-19T04:54:53.495Z,101597.81
2022-12-19T04:57:20.583Z,101596.97
2022-12-19T04:59:47.593Z,101591.78
2022-12-19T05:02:14.316Z,101593.38
2022-12-19T05:04:41.377Z,101598.66
2022-12-19T05:07:07.935Z,101593.47
2022-12-19T05:09:34.456Z,101586.41
2022-12-19T05:12:01.432Z,101580.41
2022-12-19T05:14:28.019Z,101577.53
2022-12-19T05:17:00.417Z,101574.06
2022-12-19T05:19:28.551Z,101572.25
2022-12-19T05:21:55.679Z,101575.66
2022-12-19T05:24:22.270Z,101571.22
2022-12-19T05:26:49.624Z,101577.25
2022-12-19T05:29:17.264Z,101571.97
2022-12-19T05:31:44.377Z,101577.03
2022-12-19T05:34:11.634Z,101569.97
2022-12-19T05:36:38.694Z,101575.16
2022-12-19T05:39:05.397Z,101565.44
2022-12-19T05:41:32.604Z,101569.75
2022-12-19T05:43:59.171Z,101570.50
2022-12-19T05:46:27.366Z,101564.34
2022-12-19T05:48:54.699Z,101567.00
2022-12-19T05:51:21.686Z,101560.88
2022-12-19T05:53:48.812Z,101575.66
2022-12-19T05:56:18.718Z,101576.63
2022-12-19T05:58:46.144Z,101576.50
2022-12-19T06:01:18.573Z,101570.28
2022-12-19T06:03:46.280Z,101569.34
2022-12-19T06:06:16.526Z,101572.63
2022-12-19T06:08:43.248Z,101573.47
2022-12-19T06:11:11.579Z,101560.28
2022-12-19T06:13:38.894Z,101564.47
2022-12-19T06:16:12.868Z,101566.16
2022-12-19T06:18:44.459Z,101561.84
2022-12-19T06:21:23.077Z,101563.53
2022-12-19T06:23:50.324Z,101558.16
2022-12-19T06:26:20.096Z,101558.78
2022-12-19T06:28:49.212Z,101554.34
2022-12-19T06:31:16.591Z,101555.19
2022-12-19T06:33:43.245Z,101548.88
2022-12-19T06:36:22.506Z,101554.03
2022-12-19T06:38:49.533Z,101553.31
2022-12-19T06:41:35.626Z,101556.69
2022-12-19T06:44:05.368Z,101554.91
2022-12-19T06:46:32.203Z,101556.78
2022-12-19T06:48:59.669Z,101554.91
2022-12-19T06:51:26.430Z,101554.91
2022-12-19T06:53:53.685Z,101554.91
2022-12-19T06:56:20.861Z,101553.19
2022-12-19T06:58:48.496Z,101552.25
2022-12-19T07:01:52.959Z,101556.69
2022-12-19T07:04:29.089Z,101551.50
2022-12-19T07:06:55.806Z,101546.22
2022-12-19T07:09:23.290Z,101553.19
2022-12-19T07:11:49.838Z,101548.75
2022-12-19T07:14:16.357Z,101558.59
2022-12-19T07:16:43.057Z,101554.16
2022-12-19T07:19:10.332Z,101570.63
2022-12-19T07:21:37.967Z,101574.09
2022-12-19T07:24:06.030Z,101562.59
2022-12-19T07:26:32.910Z,101573.03
2022-12-19T07:29:00.516Z,101568.63
2022-12-19T07:31:27.127Z,101572.94
2022-12-19T07:33:53.702Z,101567.56
2022-12-19T07:36:20.241Z,101571.91
2022-12-19T07:38:46.819Z,101563.03
2022-12-19T07:41:13.863Z,101565.59
2022-12-19T07:43:40.880Z,101565.66
2022-12-19T07:46:07.515Z,101570.78
2022-12-19T07:48:34.043Z,101567.19
2022-12-19T07:51:00.639Z,101574.16
2022-12-19T07:53:28.147Z,101567.91
2022-12-19T07:55:54.778Z,101576.66
2022-12-19T07:58:21.959Z,101576.66
2022-12-19T08:01:00.755Z,101587.25
2022-12-19T08:03:28.411Z,101581.00
2022-12-19T08:06:00.154Z,101579.31
2022-12-19T08:08:27.983Z,101575.81
2022-12-19T08:10:54.827Z,101579.44
2022-12-19T08:13:21.462Z,101569.94
2022-12-19T08:15:48.115Z,101588.31
2022-12-19T08:18:15.119Z,101577.63
2022-12-19T08:20:44.552Z,101584.59
2022-12-19T08:23:11.058Z,101581.25
2022-12-19T08:25:37.571Z,101574.16
2022-12-19T08:28:04.588Z,101573.31
2022-12-19T08:30:31.096Z,101584.72
2022-12-19T08:32:57.667Z,101582.19
2022-12-19T08:35:24.191Z,101588.19
2022-12-19T08:37:51.193Z,101586.38
2022-12-19T08:40:17.757Z,101591.56
2022-12-19T08:42:44.257Z,101596.75
2022-12-19T08:45:11.326Z,101603.72
2022-12-19T08:47:37.884Z,101597.59
2022-12-19T08:50:04.884Z,101594.84
2022-12-19T08:52:31.399Z,101588.72
2022-12-19T08:54:58.033Z,101592.22
2022-12-19T08:57:24.582Z,101593.06
2022-12-19T08:59:51.645Z,101596.56
2022-12-19T09:02:19.239Z,101601.75
2022-12-19T09:06:00.590Z,101600.03
2022-12-19T09:07:34.561Z,101591.06
2022-12-19T09:10:06.343Z,101594.66
2022-12-19T09:12:33.348Z,101604.16
2022-12-19T09:14:59.864Z,101596.97
2022-12-19T09:17:26.391Z,101599.50
2022-12-19T09:19:52.953Z,101604.69
2022-12-19T09:22:19.464Z,101609.03
2022-12-19T09:24:45.980Z,101607.03
2022-12-19T09:27:12.728Z,101610.50
2022-12-19T09:29:40.953Z,101619.94
2022-12-19T09:32:07.514Z,101622.44
2022-12-19T09:34:37.425Z,101619.69
2022-12-19T09:37:15.767Z,101612.59
2022-12-19T09:39:45.233Z,101612.50
2022-12-19T09:42:29.894Z,101604.56
2022-12-19T09:45:15.008Z,101617.69
2022-12-19T09:47:49.260Z,101622.97
2022-12-19T09:50:31.851Z,101620.34
2022-12-19T09:53:03.840Z,101622.13
2022-12-19T09:55:37.681Z,101617.47
2022-12-19T09:58:18.605Z,101621.06
2022-12-19T10:00:59.694Z,101624.47
2022-12-19T10:03:40.450Z,101622.66
2022-12-19T10:07:09.002Z,101617.28
2022-12-19T10:10:01.902Z,101615.47
2022-12-19T10:12:42.674Z,101616.31
2022-12-19T10:15:12.414Z,101607.53
2022-12-19T10:18:06.195Z,101615.34
2022-12-19T10:20:35.473Z,101613.53
2022-12-19T10:23:32.744Z,101610.78
2022-12-19T10:26:03.937Z,101615.13
2022-12-19T10:28:46.190Z,101613.34
2022-12-19T10:31:24.741Z,101607.09
2022-12-19T10:34:27.351Z,101613.22
2022-12-19T10:37:27.585Z,101600.84
2022-12-19T10:40:05.003Z,101613.97
2022-12-19T10:43:28.647Z,101611.97
2022-12-19T10:46:03.609Z,101618.09
2022-12-19T10:48:31.525Z,101622.31
2022-12-19T10:50:58.622Z,101609.09
2022-12-19T10:53:32.166Z,101607.19
2022-12-19T10:56:11.785Z,101610.66
2022-12-19T10:58:43.321Z,101604.44
2022-12-19T11:01:09.850Z,101608.66
2022-12-19T11:03:37.392Z,101610.47
2022-12-19T11:06:05.094Z,101607.72
2022-12-19T11:08:35.077Z,101611.09
2022-12-19T11:12:53.099Z,101593.44
2022-12-19T11:21:12.274Z,101596.94
2022-12-19T11:22:25.740Z,101598.72
2022-12-19T11:29:40.286Z,101596.69
2022-12-19T11:29:41.908Z,101586.25
2022-12-19T11:30:45.317Z,101588.75
2022-12-19T11:30:48.365Z,101591.53
2022-12-19T11:32:34.025Z,101588.75
2022-12-19T11:34:18.895Z,101582.41
2022-12-19T11:36:55.815Z,101600.91
2022-12-19T11:39:29.717Z,101571.81
2022-12-19T11:42:16.018Z,101584.81
2022-12-19T11:44:53.241Z,101579.66
2022-12-19T11:47:37.110Z,101575.09
2022-12-19T11:50:13.655Z,101581.22
2022-12-19T11:53:05.920Z,101585.56
2022-12-19T11:55:45.174Z,101591.69
2022-12-19T11:58:13.068Z,101593.41
2022-12-19T12:00:54.210Z,101584.63
2022-12-19T12:03:58.306Z,101593.28
2022-12-19T12:06:33.980Z,101592.34
2022-12-19T12:13:21.559Z,101584.50
2022-12-19T12:21:57.695Z,101573.81
2022-12-19T12:31:00.611Z,101569.47
2022-12-19T12:31:27.902Z,101576.31
2022-12-19T12:31:31.852Z,101576.31
2022-12-19T12:31:45.830Z,101568.28
2022-12-19T12:31:57.039Z,101578.88
2022-12-19T12:35:38.053Z,101529.34
2022-12-19T12:38:22.959Z,101569.03
2022-12-19T12:41:13.428Z,101567.13
2022-12-19T12:44:06.472Z,101562.66
2022-12-19T12:46:40.336Z,101560.13
2022-12-19T12:49:15.598Z,101549.44
2022-12-19T12:51:42.939Z,101540.56
2022-12-19T12:54:15.949Z,101549.44
2022-12-19T12:56:44.529Z,101550.19
2022-12-19T12:59:26.786Z,101554.50
2022-12-19T13:02:00.380Z,101552.81
2022-12-19T13:04:29.666Z,101536.84
2022-12-19T13:07:12.851Z,101532.50
2022-12-19T13:09:40.919Z,101530.59
2022-12-19T13:12:38.501Z,101539.50
2022-12-19T13:15:27.020Z,101534.09
2022-12-19T13:17:53.556Z,101534.94
2022-12-19T13:20:29.194Z,101531.34
2022-12-19T13:22:58.711Z,101515.47
2022-12-19T13:25:34.051Z,101516.28
2022-12-19T13:28:03.623Z,101497.75
2022-12-19T13:30:50.531Z,101498.59
2022-12-19T13:33:19.378Z,101495.09
2022-12-19T13:37:31.350Z,101486.22
2022-12-19T13:39:50.088Z,101491.50
2022-12-19T13:42:00.068Z,101484.41
2022-12-19T13:44:26.754Z,101481.75
2022-12-19T13:46:56.018Z,101484.41
2022-12-19T13:49:34.261Z,101475.50
2022-12-19T13:52:03.570Z,101475.63
2022-12-19T13:54:51.093Z,101477.22
2022-12-19T13:57:30.017Z,101475.41
2022-12-19T14:00:10.445Z,101470.00
2022-12-19T14:02:46.311Z,101460.25
2022-12-19T14:06:17.897Z,101459.31
2022-12-19T14:08:26.049Z,101455.69
2022-12-19T14:11:36.661Z,101464.38
2022-12-19T14:14:27.591Z,101461.72
2022-12-19T14:17:06.582Z,101453.69
2022-12-19T14:19:42.581Z,101455.38
2022-12-19T14:22:25.976Z,101449.94
2022-12-19T14:25:50.182Z,101446.31
2022-12-19T14:28:20.040Z,101464.75
2022-12-19T14:31:00.992Z,101464.63
2022-12-19T14:33:59.093Z,101457.53
2022-12-19T14:36:32.763Z,101455.63
2022-12-19T14:39:19.735Z,101449.59
2022-12-19T14:42:08.281Z,101444.06
2022-12-19T14:53:08.410Z,101447.47
2022-12-19T14:54:04.973Z,101452.63
2022-12-19T14:54:14.694Z,101448.31
2022-12-19T14:54:27.813Z,101460.44
2022-12-19T14:59:01.680Z,101468.38
2022-12-19T15:01:32.338Z,101476.13
2022-12-19T15:04:51.952Z,101480.47
2022-12-19T15:07:11.793Z,101499.00
2022-12-19T15:11:03.467Z,101506.81
2022-12-19T15:14:56.287Z,101505.00
2022-12-19T15:16:29.955Z,101504.06
2022-12-19T15:19:00.241Z,101489.03
2022-12-19T15:21:27.948Z,101491.56
2022-12-19T15:23:54.891Z,101499.50
2022-12-19T15:26:34.015Z,101496.75
2022-12-19T15:29:01.907Z,101500.34
2022-12-19T15:31:34.763Z,101484.19
2022-12-19T15:34:48.267Z,101484.19
2022-12-19T15:37:15.966Z,101478.91
2022-12-19T15:39:43.940Z,101473.50
2022-12-19T15:42:28.849Z,101456.66
2022-12-19T15:44:57.909Z,101453.91
2022-12-19T15:47:32.913Z,101445.09
2022-12-19T15:50:02.741Z,101443.31
2022-12-19T15:52:29.973Z,101459.06
2022-12-19T15:54:59.287Z,101482.91
2022-12-19T15:57:36.799Z,101477.63
2022-12-19T16:00:07.887Z,101474.84
2022-12-19T16:03:13.444Z,101462.44
2022-12-19T16:05:23.462Z,101458.00
2022-12-19T16:07:50.706Z,101456.31
2022-12-19T16:10:17.544Z,101445.50
2022-12-19T16:12:48.189Z,101454.41
2022-12-19T16:15:26.969Z,101469.44
2022-12-19T16:17:55.391Z,101455.97
2022-12-19T16:20:25.267Z,101461.28
2022-12-19T16:22:51.892Z,101463.81
2022-12-19T16:25:19.141Z,101461.97
2022-12-19T16:27:53.132Z,101459.31
2022-12-19T16:30:23.380Z,101470.75
2022-12-19T16:32:50.747Z,101473.41
2022-12-19T16:35:40.157Z,101465.22
2022-12-19T16:38:07.096Z,101474.97
2022-12-19T16:40:33.687Z,101466.06
2022-12-19T16:43:25.484Z,101474.03
2022-12-19T16:45:53.106Z,101467.75
2022-12-19T16:48:26.133Z,101454.53
2022-12-19T16:50:53.453Z,101459.81
2022-12-19T16:53:20.053Z,101456.22
2022-12-19T16:55:48.745Z,101458.97
2022-12-19T16:58:21.773Z,101452.59
2022-12-19T17:00:51.132Z,101457.16
2022-12-19T17:03:36.811Z,101457.78
2022-12-19T17:06:04.504Z,101458.63
2022-12-19T17:08:32.419Z,101457.06
2022-12-19T17:10:59.261Z,101452.50
2022-12-19T17:13:26.399Z,101457.66
2022-12-19T17:15:57.012Z,101455.88
2022-12-19T17:18:27.194Z,101462.00
2022-12-19T17:20:53.980Z,101461.91
2022-12-19T17:23:22.495Z,101452.38
2022-12-19T17:25:50.306Z,101458.50
2022-12-19T17:28:17.657Z,101453.22
2022-12-19T17:30:52.550Z,101449.47
2022-12-19T17:33:22.148Z,101451.28
2022-12-19T17:35:48.914Z,101451.28
2022-12-19T17:38:17.200Z,101462.72
2022-12-19T17:40:44.856Z,101455.88
2022-12-19T17:43:14.732Z,101454.75
2022-12-19T17:45:41.852Z,101460.91
2022-12-19T17:48:26.438Z,101470.53
2022-12-19T17:50:54.210Z,101460.06
2022-12-19T17:53:21.128Z,101468.00
2022-12-19T17:55:47.856Z,101455.75
2022-12-19T17:58:14.536Z,101460.78
2022-12-19T18:00:42.178Z,101454.53
2022-12-19T18:03:25.155Z,101478.47
2022-12-19T18:05:54.665Z,101465.25
2022-12-19T18:08:25.460Z,101469.69
2022-12-19T18:10:52.822Z,101472.34
2022-12-19T18:13:20.497Z,101472.34
2022-12-19T18:15:47.371Z,101473.19
2022-12-19T18:18:15.831Z,101477.41
2022-12-19T18:20:44.220Z,101470.31
2022-12-19T18:23:16.833Z,101472.97
2022-12-19T18:25:44.407Z,101463.31
2022-12-19T18:28:11.219Z,101473.69
2022-12-19T18:30:38.345Z,101478.13
2022-12-19T18:33:06.806Z,101459.81
2022-12-19T18:35:40.445Z,101468.28
2022-12-19T18:38:12.552Z,101466.59
2022-12-19T18:40:39.620Z,101467.44
2022-12-19T18:43:06.427Z,101467.31
2022-12-19T18:45:42.745Z,101468.28
2022-12-19T18:48:18.311Z,101461.06
2022-12-19T18:50:45.412Z,101471.66
2022-12-19T18:53:15.729Z,101478.63
2022-12-19T18:55:44.150Z,101462.75
2022-12-19T18:58:10.718Z,101470.69
2022-12-19T19:00:39.008Z,101469.84
2022-12-19T19:03:11.976Z,101474.88
2022-12-19T19:05:40.180Z,101475.03
2022-12-19T19:08:15.285Z,101474.88
2022-12-19T19:10:41.855Z,101480.19
2022-12-19T19:13:10.392Z,101492.59
2022-12-19T19:15:45.482Z,101492.59
2022-12-19T19:18:12.705Z,101492.47
2022-12-19T19:20:42.051Z,101491.50
2022-12-19T19:23:11.815Z,101490.66
2022-12-19T19:25:38.885Z,101495.97
2022-12-19T19:28:06.563Z,101491.63
2022-12-19T19:30:35.784Z,101498.50
2022-12-19T19:33:25.806Z,101505.59
2022-12-19T19:35:58.036Z,101501.25
2022-12-19T19:38:25.486Z,101496.06
2022-12-19T19:40:52.056Z,101512.59
2022-12-19T19:43:18.599Z,101506.44
2022-12-19T19:45:45.134Z,101498.38
2022-12-19T19:48:11.744Z,101503.91
2022-12-19T19:50:38.873Z,101508.97
2022-12-19T19:53:05.492Z,101502.00
2022-12-19T19:55:32.044Z,101501.88
2022-12-19T19:57:59.157Z,101497.41
2022-12-19T20:00:25.853Z,101497.41
2022-12-19T20:02:52.638Z,101502.00
2022-12-19T20:05:19.351Z,101505.38
2022-12-19T20:07:45.905Z,101498.38
2022-12-19T20:10:13.509Z,101500.91
2022-12-19T20:12:40.185Z,101498.38
2022-12-19T20:15:07.649Z,101497.41
2022-12-19T20:17:34.302Z,101502.72
2022-12-19T20:20:00.863Z,101490.31
2022-12-19T20:22:29.200Z,101490.31
2022-12-19T20:24:56.463Z,101494.78
2022-12-19T20:27:23.540Z,101492.84
2022-12-19T20:29:50.636Z,101499.94
2022-12-19T20:32:17.429Z,101498.16
2022-12-19T20:34:44.498Z,101502.59
2022-12-19T20:37:11.705Z,101505.13
2022-12-19T20:39:38.444Z,101497.19
2022-12-19T20:42:06.496Z,101499.94
2022-12-19T20:44:33.201Z,101503.44
2022-12-19T20:47:00.127Z,101506.09
2022-12-19T20:49:27.136Z,101500.69
2022-12-19T20:51:54.502Z,101501.66
2022-12-19T20:54:21.153Z,101511.28
2022-12-19T20:56:48.167Z,101507.78
2022-12-19T20:59:14.764Z,101513.94
2022-12-19T21:01:41.465Z,101510.56
2022-12-19T21:04:08.622Z,101522.72
2022-12-19T21:06:37.900Z,101525.38
2022-12-19T21:09:06.164Z,101513.94
2022-12-19T21:11:33.626Z,101519.22
2022-12-19T21:14:01.107Z,101522.72
2022-12-19T21:16:27.764Z,101519.22
2022-12-19T21:18:54.890Z,101516.56
2022-12-19T21:21:25.008Z,101517.44
2022-12-19T21:23:52.383Z,101517.44
2022-12-19T21:26:19.195Z,101514.78
2022-12-19T21:28:45.785Z,101517.44
2022-12-19T21:31:18.343Z,101521.03
2022-12-19T21:33:46.127Z,101506.94
2022-12-19T21:36:19.047Z,101510.44
2022-12-19T21:38:51.780Z,101503.56
2022-12-19T21:41:19.386Z,101500.78
2022-12-19T21:43:48.730Z,101506.09
2022-12-19T21:46:16.780Z,101500.78
2022-12-19T21:48:46.504Z,101510.56
2022-12-19T21:51:14.923Z,101501.75
2022-12-19T21:53:42.156Z,101511.41
2022-12-19T21:56:34.427Z,101513.19
2022-12-19T21:59:03.804Z,101508.84
2022-12-19T22:01:31.480Z,101506.22
2022-12-19T22:04:00.238Z,101501.75
2022-12-19T22:06:30.305Z,101509.72
2022-12-19T22:08:57.120Z,101516.69
2022-12-19T22:11:24.467Z,101516.69
2022-12-19T22:13:52.161Z,101504.41
2022-12-19T22:16:19.095Z,101505.13
2022-12-19T22:18:46.476Z,101503.44
2022-12-19T22:21:15.091Z,101492.84
2022-12-19T22:23:42.648Z,101482.38
2022-12-19T22:26:15.479Z,101497.31
2022-12-19T22:28:45.039Z,101489.34
2022-12-19T22:31:26.937Z,101474.31
2022-12-19T22:33:56.551Z,101476.94
2022-12-19T22:36:28.350Z,101480.44
2022-12-19T22:38:56.621Z,101461.91
2022-12-19T22:41:23.560Z,101476.94
2022-12-19T22:43:50.148Z,101469.84
2022-12-19T22:46:20.283Z,101465.38
2022-12-19T22:48:48.689Z,101468.03
2022-12-19T22:51:16.403Z,101473.47
2022-12-19T22:53:44.059Z,101444.19
2022-12-19T22:56:19.729Z,101462.75
2022-12-19T22:58:49.426Z,101471.66
2022-12-19T23:01:28.682Z,101454.78
2022-12-19T23:03:57.915Z,101457.44
2022-12-19T23:06:27.788Z,101446.00
2022-12-19T23:08:54.934Z,101467.19
2022-12-19T23:11:28.151Z,101453.09
2022-12-19T23:13:55.351Z,101461.06
2022-12-19T23:16:22.474Z,101459.13
2022-12-19T23:18:49.039Z,101453.84
2022-12-19T23:21:19.295Z,101454.78
2022-12-19T23:23:48.181Z,101457.44
2022-12-19T23:26:20.635Z,101460.09
2022-12-19T23:28:52.875Z,101458.28
2022-12-19T23:31:20.344Z,101460.94
2022-12-19T23:33:46.983Z,101452.03
2022-12-19T23:36:14.318Z,101462.63
2022-12-19T23:38:43.264Z,101453.72
2022-12-19T23:41:11.739Z,101447.56
2022-12-19T23:43:39.028Z,101452.88
2022-12-19T23:46:11.726Z,101445.03
2022-12-19T23:48:38.339Z,101445.78
2022-12-19T23:51:07.305Z,101438.78
2022-12-19T23:53:34.889Z,101440.47
2022-12-19T23:56:05.733Z,101435.16
2022-12-19T23:58:32.601Z,101443.97
